Time;durP1;ratioP1;P1;durP2;ratioP2;P2;SDS_P1;SDS_P2;PMS_P1;PMS_P2;Temp;Humidity;BMP_temperature;BMP_pressure;BME280_temperature;BME280_humidity;BME280_pressure;Samples;Min_cycle;Max_cycle;Signal;HPM_P1;HPM_P2
2022/10/04 00:01:09;;;;;;;;;32.50;26.00;;;;;;;;5083746;28;61806;-78
2022/10/04 00:03:43;;;;;;;;;32.25;26.00;;;;;;;;5083169;28;63441;-78
2022/10/04 00:06:27;;;;;;;;;26.75;24.25;;;;;;;;5084221;28;62173;-78
2022/10/04 00:08:56;;;;;;;;;33.75;25.75;;;;;;;;5083736;28;61698;-79
2022/10/04 00:11:25;;;;;;;;;34.50;22.75;;;;;;;;5085038;28;61990;-78
2022/10/04 00:13:53;;;;;;;;;32.25;27.50;;;;;;;;5082958;28;64956;-78
2022/10/04 00:16:30;;;;;;;;;31.25;26.25;;;;;;;;5085160;27;61789;-78
2022/10/04 00:19:13;;;;;;;;;33.25;27.75;;;;;;;;5084952;27;62009;-79
2022/10/04 00:21:51;;;;;;;;;32.00;24.00;;;;;;;;5085077;27;61644;-78
2022/10/04 00:24:20;;;;;;;;;31.00;23.50;;;;;;;;5083884;27;61906;-78
2022/10/04 00:26:48;;;;;;;;;23.25;22.25;;;;;;;;5084490;28;61767;-79
2022/10/04 00:29:43;;;;;;;;;30.25;26.50;;;;;;;;5085088;27;61715;-78
2022/10/04 00:32:11;;;;;;;;;33.00;25.75;;;;;;;;5070488;28;62170;-78
2022/10/04 00:34:50;;;;;;;;;34.25;26.75;;;;;;;;5084306;28;61855;-78
2022/10/04 00:37:19;;;;;;;;;32.50;25.25;;;;;;;;5085031;28;61778;-78
2022/10/04 00:39:46;;;;;;;;;33.50;24.00;;;;;;;;5084729;28;62124;-78
2022/10/04 00:42:17;;;;;;;;;41.50;29.25;;;;;;;;5083143;28;62119;-78
2022/10/04 00:44:50;;;;;;;;;36.00;29.50;;;;;;;;5082514;28;63366;-78
2022/10/04 00:47:21;;;;;;;;;31.75;29.00;;;;;;;;5084937;28;61752;-78
2022/10/04 00:49:48;;;;;;;;;41.75;25.75;;;;;;;;5084579;28;61888;-78
2022/10/04 00:52:40;;;;;;;;;33.50;25.50;;;;;;;;5084945;28;61843;-78
2022/10/04 00:55:07;;;;;;;;;33.25;28.25;;;;;;;;5077892;27;64794;-78
2022/10/04 00:57:44;;;;;;;;;34.75;28.25;;;;;;;;5084119;28;62122;-78
2022/10/04 01:00:14;;;;;;;;;30.00;25.00;;;;;;;;5082558;28;61760;-78
2022/10/04 01:02:45;;;;;;;;;32.25;26.50;;;;;;;;5081060;28;61905;-78
2022/10/04 01:05:19;;;;;;;;;31.50;26.00;;;;;;;;5062317;28;63691;-78
2022/10/04 01:07:57;;;;;;;;;37.00;26.50;;;;;;;;5062512;28;61905;-78
2022/10/04 01:10:28;;;;;;;;;31.00;23.00;;;;;;;;5062792;28;61735;-78
2022/10/04 01:13:03;;;;;;;;;28.00;24.25;;;;;;;;5063817;28;61913;-78
2022/10/04 01:15:34;;;;;;;;;39.75;29.00;;;;;;;;5062084;28;65033;-78
2022/10/04 01:18:12;;;;;;;;;31.25;24.75;;;;;;;;5062551;28;62423;-78
2022/10/04 01:20:58;;;;;;;;;32.75;25.25;;;;;;;;5062404;28;61957;-78
2022/10/04 01:23:32;;;;;;;;;37.75;28.75;;;;;;;;5062799;27;62147;-78
2022/10/04 01:25:58;;;;;;;;;31.50;27.25;;;;;;;;5061565;28;64122;-79
2022/10/04 01:28:23;;;;;;;;;31.75;27.25;;;;;;;;5063297;28;61935;-78
2022/10/04 01:30:49;;;;;;;;;31.00;22.75;;;;;;;;5082167;28;62081;-78
2022/10/04 01:33:14;;;;;;;;;40.75;29.75;;;;;;;;5084081;28;61738;-78
2022/10/04 01:35:39;;;;;;;;;38.00;29.25;;;;;;;;5083491;28;63001;-78
2022/10/04 01:38:06;;;;;;;;;32.00;30.00;;;;;;;;5081991;28;61710;-78
2022/10/04 01:40:31;;;;;;;;;33.50;27.75;;;;;;;;5083945;28;61727;-79
2022/10/04 01:43:00;;;;;;;;;43.25;27.75;;;;;;;;5082991;28;62131;-78
2022/10/04 01:45:29;;;;;;;;;34.50;24.50;;;;;;;;5083283;28;61964;-78
2022/10/04 01:47:57;;;;;;;;;34.50;28.25;;;;;;;;5083730;28;62198;-78
2022/10/04 01:50:34;;;;;;;;;36.00;27.50;;;;;;;;5082360;28;61800;-78
2022/10/04 01:53:19;;;;;;;;;31.00;27.75;;;;;;;;5082749;28;61939;-78
2022/10/04 01:55:48;;;;;;;;;29.75;22.75;;;;;;;;5080885;27;64855;-78
2022/10/04 01:58:17;;;;;;;;;36.00;30.75;;;;;;;;5083245;28;61692;-78
2022/10/04 02:00:50;;;;;;;;;38.75;33.75;;;;;;;;5082694;28;62105;-78
2022/10/04 02:03:32;;;;;;;;;30.75;26.50;;;;;;;;5062108;28;61845;-78
2022/10/04 02:05:59;;;;;;;;;37.50;30.25;;;;;;;;5063021;28;61802;-78
2022/10/04 02:08:32;;;;;;;;;31.75;28.25;;;;;;;;5061684;28;62040;-78
2022/10/04 02:10:59;;;;;;;;;29.00;23.50;;;;;;;;5095399;27;61983;-78
2022/10/04 02:13:28;;;;;;;;;34.75;28.75;;;;;;;;5062961;28;61913;-78
2022/10/04 02:15:54;;;;;;;;;37.00;29.75;;;;;;;;5061184;28;63948;-78
2022/10/04 02:18:20;;;;;;;;;35.25;25.75;;;;;;;;5061547;28;61973;-78
2022/10/04 02:20:46;;;;;;;;;38.25;28.50;;;;;;;;5095337;27;61802;-78
2022/10/04 02:23:11;;;;;;;;;41.00;35.00;;;;;;;;5062682;28;61788;-78
2022/10/04 02:25:37;;;;;;;;;34.50;28.25;;;;;;;;5061823;28;63677;-78
2022/10/04 02:28:03;;;;;;;;;27.75;21.75;;;;;;;;5060744;28;62030;-78
2022/10/04 02:30:34;;;;;;;;;31.50;29.00;;;;;;;;5076680;28;61757;-78
2022/10/04 02:32:59;;;;;;;;;34.25;28.00;;;;;;;;5082913;28;61754;-78
2022/10/04 02:35:35;;;;;;;;;34.25;27.00;;;;;;;;5080591;28;64710;-78
2022/10/04 02:38:05;;;;;;;;;41.25;31.00;;;;;;;;5081259;28;61738;-78
2022/10/04 02:40:38;;;;;;;;;37.50;29.00;;;;;;;;5081137;28;62211;-78
2022/10/04 02:43:23;;;;;;;;;39.50;29.00;;;;;;;;5082396;28;61809;-78
2022/10/04 02:46:12;;;;;;;;;32.50;28.00;;;;;;;;5081470;28;61958;-78
2022/10/04 02:48:46;;;;;;;;;30.50;27.25;;;;;;;;5082464;28;61759;-78
2022/10/04 02:51:16;;;;;;;;;32.00;25.75;;;;;;;;5082791;28;61689;-78
2022/10/04 02:53:42;;;;;;;;;29.25;27.25;;;;;;;;5081500;28;62184;-78
2022/10/04 02:56:08;;;;;;;;;23.75;23.75;;;;;;;;5083721;28;64580;-78
2022/10/04 02:58:37;;;;;;;;;28.25;24.75;;;;;;;;5085770;28;62170;-78
2022/10/04 03:01:02;;;;;;;;;33.25;28.50;;;;;;;;5085713;28;62031;-78
2022/10/04 03:03:29;;;;;;;;;35.00;28.50;;;;;;;;5085753;28;62208;-78
2022/10/04 03:06:06;;;;;;;;;31.25;28.75;;;;;;;;5084058;28;63758;-78
2022/10/04 03:08:34;;;;;;;;;37.25;30.00;;;;;;;;5085557;27;61995;-78
2022/10/04 03:11:01;;;;;;;;;29.50;27.50;;;;;;;;5084292;28;61899;-78
2022/10/04 03:13:27;;;;;;;;;36.75;30.75;;;;;;;;5085329;27;62067;-78
2022/10/04 03:15:52;;;;;;;;;33.00;27.25;;;;;;;;5084999;27;62684;-78
2022/10/04 03:18:18;;;;;;;;;37.25;30.75;;;;;;;;5085402;28;61690;-78
2022/10/04 03:20:44;;;;;;;;;39.25;29.00;;;;;;;;5085648;27;61923;-78
2022/10/04 03:23:11;;;;;;;;;36.50;32.75;;;;;;;;5084223;28;61750;-78
2022/10/04 03:25:57;;;;;;;;;29.50;24.75;;;;;;;;5083299;28;64894;-78
2022/10/04 03:28:23;;;;;;;;;29.00;29.00;;;;;;;;5083142;28;62244;-78
2022/10/04 03:30:48;;;;;;;;;29.50;26.75;;;;;;;;5083627;28;61798;-78
2022/10/04 03:33:21;;;;;;;;;39.75;34.00;;;;;;;;5084303;28;61777;-78
2022/10/04 03:35:49;;;;;;;;;36.00;26.00;;;;;;;;5084968;28;63064;-78
2022/10/04 03:38:16;;;;;;;;;42.25;34.25;;;;;;;;5083509;28;62038;-78
2022/10/04 03:40:44;;;;;;;;;34.25;26.00;;;;;;;;5083524;28;61909;-78
2022/10/04 03:43:11;;;;;;;;;40.00;30.25;;;;;;;;5083837;28;61776;-78
2022/10/04 03:45:38;;;;;;;;;35.75;29.75;;;;;;;;5083127;28;63674;-78
2022/10/04 03:48:05;;;;;;;;;35.00;30.00;;;;;;;;5084889;28;61824;-78
2022/10/04 03:50:33;;;;;;;;;36.75;30.00;;;;;;;;5084876;28;61865;-78
2022/10/04 03:53:06;;;;;;;;;34.75;32.50;;;;;;;;5083689;28;62046;-78
2022/10/04 03:55:33;;;;;;;;;36.25;28.75;;;;;;;;5083934;28;61966;-78
2022/10/04 03:57:58;;;;;;;;;39.00;26.00;;;;;;;;5083418;28;61821;-78
2022/10/04 04:00:24;;;;;;;;;29.50;27.75;;;;;;;;5083295;28;61852;-78
2022/10/04 04:02:57;;;;;;;;;25.50;23.50;;;;;;;;5078120;28;61790;-78
2022/10/04 04:05:30;;;;;;;;;33.25;27.75;;;;;;;;5062604;28;63630;-79
2022/10/04 04:08:13;;;;;;;;;24.50;19.75;;;;;;;;5062994;28;61892;-78
2022/10/04 04:10:42;;;;;;;;;31.75;27.75;;;;;;;;5064469;28;61962;-78
2022/10/04 04:13:10;;;;;;;;;34.25;27.00;;;;;;;;5063199;28;61698;-78
2022/10/04 04:15:37;;;;;;;;;29.75;25.25;;;;;;;;5063747;28;61898;-78
2022/10/04 04:18:04;;;;;;;;;35.25;25.25;;;;;;;;5064394;28;61777;-78
2022/10/04 04:20:34;;;;;;;;;35.50;26.00;;;;;;;;5064187;28;61778;-78
2022/10/04 04:23:14;;;;;;;;;37.00;19.00;;;;;;;;5064345;28;61914;-78
2022/10/04 04:25:53;;;;;;;;;25.50;23.75;;;;;;;;5062217;28;63980;-78
2022/10/04 04:28:21;;;;;;;;;24.75;23.25;;;;;;;;5064096;28;62152;-78
2022/10/04 04:30:49;;;;;;;;;24.25;20.75;;;;;;;;5073681;28;61794;-78
2022/10/04 04:33:23;;;;;;;;;28.50;20.25;;;;;;;;5083561;28;61777;-78
2022/10/04 04:35:53;;;;;;;;;31.50;24.50;;;;;;;;5082085;28;63682;-78
2022/10/04 04:38:20;;;;;;;;;26.50;25.00;;;;;;;;5083086;28;61938;-78
2022/10/04 04:40:45;;;;;;;;;26.50;22.75;;;;;;;;5082665;28;61957;-78
2022/10/04 04:43:18;;;;;;;;;25.00;20.50;;;;;;;;5084028;28;61754;-78
2022/10/04 04:45:44;;;;;;;;;32.50;22.25;;;;;;;;5083788;28;61857;-78
2022/10/04 04:48:13;;;;;;;;;28.75;26.00;;;;;;;;5084438;28;62043;-79
2022/10/04 04:50:39;;;;;;;;;27.75;22.00;;;;;;;;5084167;28;62269;-78
2022/10/04 04:53:13;;;;;;;;;27.50;21.25;;;;;;;;5082851;28;61793;-78
2022/10/04 04:55:43;;;;;;;;;24.50;19.25;;;;;;;;5083348;28;63217;-78
2022/10/04 04:58:13;;;;;;;;;32.25;23.75;;;;;;;;5084194;28;62004;-78
2022/10/04 05:00:38;;;;;;;;;28.75;21.00;;;;;;;;5082822;28;61879;-78
2022/10/04 05:03:05;;;;;;;;;26.25;23.00;;;;;;;;5084092;28;61787;-81
2022/10/04 05:05:31;;;;;;;;;21.25;20.25;;;;;;;;5081771;28;64811;-83
2022/10/04 05:08:10;;;;;;;;;25.25;22.75;;;;;;;;5082358;28;61941;-81
2022/10/04 05:10:36;;;;;;;;;28.00;21.25;;;;;;;;5082880;28;61903;-81
2022/10/04 05:13:03;;;;;;;;;23.25;20.25;;;;;;;;5083097;28;62112;-80
2022/10/04 05:15:33;;;;;;;;;27.50;24.75;;;;;;;;5083683;28;63067;-81
2022/10/04 05:17:59;;;;;;;;;22.50;20.25;;;;;;;;5081664;28;61745;-82
2022/10/04 05:20:25;;;;;;;;;22.25;20.00;;;;;;;;5083940;27;61679;-80
2022/10/04 05:22:50;;;;;;;;;25.25;17.25;;;;;;;;5083815;28;61703;-82
2022/10/04 05:25:24;;;;;;;;;29.00;21.00;;;;;;;;5081157;28;63446;-81
2022/10/04 05:27:49;;;;;;;;;26.75;20.00;;;;;;;;5083419;28;61890;-81
2022/10/04 05:30:27;;;;;;;;;25.75;21.00;;;;;;;;5083488;28;61732;-83
2022/10/04 05:33:06;;;;;;;;;24.50;20.25;;;;;;;;5063445;28;61997;-80
2022/10/04 05:35:41;;;;;;;;;29.50;19.50;;;;;;;;5066555;28;64684;-81
2022/10/04 05:38:06;;;;;;;;;23.25;16.25;;;;;;;;5082064;27;61730;-81
2022/10/04 05:40:35;;;;;;;;;25.00;20.25;;;;;;;;5082237;27;61730;-80
2022/10/04 05:43:00;;;;;;;;;23.25;20.50;;;;;;;;5076288;28;61910;-85
2022/10/04 05:45:30;;;;;;;;;21.75;20.50;;;;;;;;5077597;28;61944;-84
2022/10/04 05:47:57;;;;;;;;;24.75;20.75;;;;;;;;5079120;28;61930;-84
2022/10/04 05:50:32;;;;;;;;;25.25;21.50;;;;;;;;5081804;27;62318;-82
2022/10/04 05:53:15;;;;;;;;;29.25;23.75;;;;;;;;5081854;28;62117;-84
2022/10/04 05:55:49;;;;;;;;;35.50;24.75;;;;;;;;5105633;27;64818;-81
2022/10/04 05:58:17;;;;;;;;;32.25;24.75;;;;;;;;5080528;28;62042;-82
2022/10/04 06:01:05;;;;;;;;;27.75;22.25;;;;;;;;5080664;28;61830;-80
2022/10/04 06:03:45;;;;;;;;;30.25;24.50;;;;;;;;5080897;28;62091;-79
2022/10/04 06:06:18;;;;;;;;;33.00;25.00;;;;;;;;5079460;28;62109;-80
2022/10/04 06:08:50;;;;;;;;;29.00;21.25;;;;;;;;5082101;28;61917;-79
2022/10/04 06:11:39;;;;;;;;;25.00;21.50;;;;;;;;5080533;28;62623;-80
2022/10/04 06:14:16;;;;;;;;;31.75;25.75;;;;;;;;5030649;28;62128;-79
2022/10/04 06:16:57;;;;;;;;;37.25;27.50;;;;;;;;5049596;28;63153;-78
2022/10/04 06:19:25;;;;;;;;;35.00;28.25;;;;;;;;5042022;28;61922;-80
2022/10/04 06:22:00;;;;;;;;;37.25;29.75;;;;;;;;5040204;28;62063;-82
2022/10/04 06:24:36;;;;;;;;;31.00;24.75;;;;;;;;5039966;28;61942;-81
2022/10/04 06:27:24;;;;;;;;;31.00;25.00;;;;;;;;5022177;28;64035;-81
2022/10/04 06:29:56;;;;;;;;;32.75;27.50;;;;;;;;5058802;28;62158;-81
2022/10/04 06:32:25;;;;;;;;;29.50;23.25;;;;;;;;5042700;28;62374;-80
2022/10/04 06:35:14;;;;;;;;;40.00;30.25;;;;;;;;5060064;28;61845;-83
2022/10/04 06:38:14;;;;;;;;;31.50;27.75;;;;;;;;5059340;28;61836;-79
2022/10/04 06:40:51;;;;;;;;;37.50;27.25;;;;;;;;4980027;28;62137;-80
2022/10/04 06:43:22;;;;;;;;;31.50;28.50;;;;;;;;4979970;28;62237;-81
2022/10/04 06:45:56;;;;;;;;;39.50;31.50;;;;;;;;4980900;28;61895;-84
2022/10/04 06:48:21;;;;;;;;;36.50;32.75;;;;;;;;4961794;28;64140;-78
2022/10/04 06:50:53;;;;;;;;;25.00;23.00;;;;;;;;4993427;28;61950;-81
2022/10/04 06:53:19;;;;;;;;;22.75;17.00;;;;;;;;5018690;28;61919;-79
2022/10/04 06:56:03;;;;;;;;;38.75;31.75;;;;;;;;5004676;28;62011;-79
2022/10/04 06:58:41;;;;;;;;;39.75;33.25;;;;;;;;5028074;28;63679;-79
2022/10/04 07:01:24;;;;;;;;;35.00;28.00;;;;;;;;5018801;28;62097;-79
2022/10/04 07:03:54;;;;;;;;;29.00;25.75;;;;;;;;5036232;28;61938;-79
2022/10/04 07:06:23;;;;;;;;;38.50;29.00;;;;;;;;5019451;28;62197;-79
2022/10/04 07:08:49;;;;;;;;;29.25;28.50;;;;;;;;5018744;28;62215;-79
2022/10/04 07:11:15;;;;;;;;;40.00;31.00;;;;;;;;5018936;28;61852;-78
2022/10/04 07:13:40;;;;;;;;;42.25;29.50;;;;;;;;5041265;28;62010;-80
2022/10/04 07:16:16;;;;;;;;;37.50;31.25;;;;;;;;5080579;28;61937;-79
2022/10/04 07:18:48;;;;;;;;;37.50;29.75;;;;;;;;5080317;28;63893;-80
2022/10/04 07:21:15;;;;;;;;;33.50;27.50;;;;;;;;5081925;27;61820;-80
2022/10/04 07:23:56;;;;;;;;;38.50;32.00;;;;;;;;5067262;27;61766;-79
2022/10/04 07:26:26;;;;;;;;;30.00;27.50;;;;;;;;5060288;28;61873;-79
2022/10/04 07:31:37;;;;;;;;;38.25;31.00;;;;;;;;5061440;28;61740;-80
2022/10/04 07:34:10;;;;;;;;;32.00;27.75;;;;;;;;5081263;27;61805;-79
2022/10/04 07:36:42;;;;;;;;;34.75;29.00;;;;;;;;5082198;27;61896;-79
2022/10/04 07:39:33;;;;;;;;;37.00;33.50;;;;;;;;5081429;28;62862;-79
2022/10/04 07:42:06;;;;;;;;;36.00;30.75;;;;;;;;5082371;27;61998;-80
2022/10/04 07:44:36;;;;;;;;;29.75;27.75;;;;;;;;5083709;28;61721;-80
2022/10/04 07:47:19;;;;;;;;;32.25;29.50;;;;;;;;5085405;27;62241;-80
2022/10/04 07:49:45;;;;;;;;;33.25;26.75;;;;;;;;5083074;27;63921;-80
2022/10/04 07:52:19;;;;;;;;;33.25;26.75;;;;;;;;5084916;27;61830;-80
2022/10/04 07:54:47;;;;;;;;;42.50;34.25;;;;;;;;5084844;27;61794;-79
2022/10/04 07:57:12;;;;;;;;;49.75;35.25;;;;;;;;5083717;28;62079;-79
2022/10/04 07:59:43;;;;;;;;;61.50;48.50;;;;;;;;5084048;28;61970;-80
2022/10/04 08:02:11;;;;;;;;;53.50;41.75;;;;;;;;5084823;27;61942;-80
2022/10/04 08:05:07;;;;;;;;;53.50;39.75;;;;;;;;5083558;28;62285;-80
2022/10/04 08:07:47;;;;;;;;;45.00;35.75;;;;;;;;5085184;27;61909;-80
2022/10/04 08:10:13;;;;;;;;;39.75;32.00;;;;;;;;5084106;27;61905;-80
2022/10/04 08:12:51;;;;;;;;;38.50;32.75;;;;;;;;5084606;28;61919;-80
2022/10/04 08:15:31;;;;;;;;;38.25;32.50;;;;;;;;5084785;27;61714;-81
2022/10/04 08:18:07;;;;;;;;;40.50;32.25;;;;;;;;5084922;28;61737;-80
2022/10/04 08:20:32;;;;;;;;;45.00;36.75;;;;;;;;5083914;27;62650;-80
2022/10/04 08:23:16;;;;;;;;;43.25;37.50;;;;;;;;5079465;28;61611;-80
2022/10/04 08:25:44;;;;;;;;;48.75;38.75;;;;;;;;5064221;28;62934;-80
2022/10/04 08:31:20;;;;;;;;;50.25;38.75;;;;;;;;5063670;28;62638;-80
2022/10/04 08:34:04;;;;;;;;;56.50;43.00;;;;;;;;5081626;27;61746;-80
2022/10/04 08:36:32;;;;;;;;;54.00;42.00;;;;;;;;5084505;27;62001;-80
2022/10/04 08:38:58;;;;;;;;;50.50;37.00;;;;;;;;5083460;28;62125;-80
2022/10/04 08:41:42;;;;;;;;;54.50;37.75;;;;;;;;5082342;28;64688;-80
2022/10/04 08:44:26;;;;;;;;;48.75;38.00;;;;;;;;5084185;27;61917;-80
2022/10/04 08:47:02;;;;;;;;;51.50;40.00;;;;;;;;5082984;28;61820;-80
2022/10/04 08:50:05;;;;;;;;;48.50;33.75;;;;;;;;5079470;27;62142;-80
2022/10/04 08:52:49;;;;;;;;;41.00;36.00;;;;;;;;5062313;28;62822;-80
2022/10/04 08:55:36;;;;;;;;;44.25;34.75;;;;;;;;5063608;28;61861;-80
2022/10/04 08:58:10;;;;;;;;;47.00;35.00;;;;;;;;5063408;28;61785;-80
2022/10/04 09:00:45;;;;;;;;;43.50;35.00;;;;;;;;5064777;28;61815;-80
2022/10/04 09:03:25;;;;;;;;;41.50;33.25;;;;;;;;5082317;28;64073;-80
2022/10/04 09:05:50;;;;;;;;;44.25;34.00;;;;;;;;5084025;28;61945;-80
2022/10/04 09:08:15;;;;;;;;;39.50;32.75;;;;;;;;5083895;28;61940;-80
2022/10/04 09:10:50;;;;;;;;;42.75;33.50;;;;;;;;5083922;28;61765;-80
2022/10/04 09:13:16;;;;;;;;;39.50;30.25;;;;;;;;5082855;28;62285;-80
2022/10/04 09:15:41;;;;;;;;;41.50;31.75;;;;;;;;5083576;28;62130;-80
2022/10/04 09:18:12;;;;;;;;;32.00;25.75;;;;;;;;5082455;28;62258;-80
2022/10/04 09:20:53;;;;;;;;;31.25;24.00;;;;;;;;5082532;28;61713;-80
2022/10/04 09:23:30;;;;;;;;;29.25;24.25;;;;;;;;5081509;28;63707;-80
2022/10/04 09:25:56;;;;;;;;;38.75;31.75;;;;;;;;5083435;28;61960;-80
2022/10/04 09:28:37;;;;;;;;;35.00;24.25;;;;;;;;5082156;28;61912;-80
2022/10/04 09:31:03;;;;;;;;;33.00;28.75;;;;;;;;5083748;28;62182;-81
2022/10/04 09:33:39;;;;;;;;;38.50;29.25;;;;;;;;5081293;27;63459;-80
2022/10/04 09:36:07;;;;;;;;;41.75;31.25;;;;;;;;5083606;27;61768;-80
2022/10/04 09:38:42;;;;;;;;;28.75;27.25;;;;;;;;5083962;27;62147;-80
2022/10/04 09:41:07;;;;;;;;;30.25;22.25;;;;;;;;5083256;27;61794;-80
2022/10/04 09:43:35;;;;;;;;;33.25;28.50;;;;;;;;5082351;28;61805;-80
2022/10/04 09:46:19;;;;;;;;;35.75;27.25;;;;;;;;5081877;28;61902;-79
2022/10/04 09:48:45;;;;;;;;;35.25;22.75;;;;;;;;5081951;27;62009;-80
2022/10/04 09:51:29;;;;;;;;;32.75;28.00;;;;;;;;5082293;28;61960;-80
2022/10/04 09:53:57;;;;;;;;;32.00;22.50;;;;;;;;5081002;28;63719;-80
2022/10/04 09:56:25;;;;;;;;;27.25;21.75;;;;;;;;5081497;28;61972;-81
2022/10/04 09:59:09;;;;;;;;;25.25;20.50;;;;;;;;5082841;28;61787;-80
2022/10/04 10:01:46;;;;;;;;;18.25;15.50;;;;;;;;5083161;27;61838;-80
2022/10/04 10:04:36;;;;;;;;;21.75;19.00;;;;;;;;5114008;27;62799;-80
2022/10/04 10:07:01;;;;;;;;;21.00;14.50;;;;;;;;5082927;27;61837;-80
2022/10/04 10:15:11;;;;;;;;;23.50;16.00;;;;;;;;5082551;28;62032;-80
2022/10/04 10:17:43;;;;;;;;;12.75;12.00;;;;;;;;5082955;27;61961;-80
2022/10/04 10:20:47;;;;;;;;;17.25;14.25;;;;;;;;5082693;27;61910;-80
2022/10/04 10:23:15;;;;;;;;;18.50;14.50;;;;;;;;5060209;28;62182;-80
2022/10/04 10:26:00;;;;;;;;;17.25;10.00;;;;;;;;5042473;28;63843;-80
2022/10/04 10:28:44;;;;;;;;;16.00;13.00;;;;;;;;5059704;28;61986;-80
2022/10/04 10:31:18;;;;;;;;;17.75;13.50;;;;;;;;5042997;28;62148;-81
2022/10/04 10:33:43;;;;;;;;;13.75;12.75;;;;;;;;5060201;28;61945;-81
2022/10/04 10:36:22;;;;;;;;;15.75;11.00;;;;;;;;5042098;28;63990;-80
2022/10/04 10:39:08;;;;;;;;;24.00;18.00;;;;;;;;5059711;28;61774;-80
2022/10/04 10:41:36;;;;;;;;;19.25;14.50;;;;;;;;5042708;28;62353;-81
2022/10/04 10:44:13;;;;;;;;;15.00;12.75;;;;;;;;5059435;28;62214;-80
2022/10/04 10:46:57;;;;;;;;;16.25;11.50;;;;;;;;5042274;28;63633;-80
2022/10/04 10:49:43;;;;;;;;;16.50;14.50;;;;;;;;5054803;28;61904;-81
2022/10/04 10:52:26;;;;;;;;;20.25;15.75;;;;;;;;5059367;28;62487;-81
2022/10/04 10:54:55;;;;;;;;;16.00;15.00;;;;;;;;5074607;28;61856;-81
2022/10/04 10:57:23;;;;;;;;;15.00;11.75;;;;;;;;5081710;28;62231;-80
2022/10/04 11:00:07;;;;;;;;;14.25;11.50;;;;;;;;5081236;28;61964;-80
2022/10/04 11:02:51;;;;;;;;;17.25;14.50;;;;;;;;5083690;27;61928;-81
2022/10/04 11:05:16;;;;;;;;;20.75;15.00;;;;;;;;5082812;28;61695;-82
2022/10/04 11:07:51;;;;;;;;;17.00;12.25;;;;;;;;5084224;28;63606;-81
2022/10/04 11:10:19;;;;;;;;;18.50;15.75;;;;;;;;5084918;28;61767;-81
2022/10/04 11:13:10;;;;;;;;;19.00;11.75;;;;;;;;5083591;28;61981;-81
2022/10/04 11:15:42;;;;;;;;;17.50;9.75;;;;;;;;5085399;28;61776;-81
2022/10/04 11:18:26;;;;;;;;;10.25;7.75;;;;;;;;5086305;27;62188;-80
2022/10/04 11:21:20;;;;;;;;;12.50;9.25;;;;;;;;5087230;27;62229;-81
2022/10/04 11:24:02;;;;;;;;;11.50;11.50;;;;;;;;5083272;27;61972;-81
2022/10/04 11:26:45;;;;;;;;;14.25;13.00;;;;;;;;5086107;27;61747;-81
2022/10/04 11:29:19;;;;;;;;;13.75;11.50;;;;;;;;5087167;27;63050;-81
2022/10/04 11:32:00;;;;;;;;;17.75;11.75;;;;;;;;5084057;27;62010;-82
2022/10/04 11:34:34;;;;;;;;;11.75;11.75;;;;;;;;5086353;28;61898;-81
2022/10/04 11:37:06;;;;;;;;;16.00;10.25;;;;;;;;5084270;28;62091;-83
2022/10/04 11:39:43;;;;;;;;;15.00;12.00;;;;;;;;5083525;28;65000;-81
2022/10/04 11:42:27;;;;;;;;;15.25;11.50;;;;;;;;5084883;28;61765;-80
2022/10/04 11:45:02;;;;;;;;;12.50;10.00;;;;;;;;5088254;28;61931;-81
2022/10/04 11:47:39;;;;;;;;;9.25;7.75;;;;;;;;5085362;27;61733;-81
2022/10/04 11:50:23;;;;;;;;;10.25;9.00;;;;;;;;5081207;27;63790;-80
2022/10/04 11:53:07;;;;;;;;;12.50;11.75;;;;;;;;5066380;28;61723;-80
2022/10/04 11:55:53;;;;;;;;;15.50;11.50;;;;;;;;5066808;28;61898;-80
2022/10/04 11:58:26;;;;;;;;;12.50;8.50;;;;;;;;5065808;28;61682;-80
2022/10/04 12:00:54;;;;;;;;;9.25;8.25;;;;;;;;5081727;28;63734;-81
2022/10/04 12:03:38;;;;;;;;;12.67;9.33;;;;;;;;5066446;28;61847;-81
2022/10/04 12:06:16;;;;;;;;;11.25;9.50;;;;;;;;5064826;28;61949;-80
2022/10/04 12:08:41;;;;;;;;;10.00;7.50;;;;;;;;5067942;28;61954;-81
2022/10/04 12:11:21;;;;;;;;;9.50;7.50;;;;;;;;5064611;28;64546;-80
2022/10/04 12:13:47;;;;;;;;;12.25;9.00;;;;;;;;5081697;28;61708;-80
2022/10/04 12:16:28;;;;;;;;;18.00;8.75;;;;;;;;5065450;28;61779;-81
2022/10/04 12:19:14;;;;;;;;;10.25;8.50;;;;;;;;5065459;28;61930;-80
2022/10/04 12:21:58;;;;;;;;;8.50;7.00;;;;;;;;5064434;28;61817;-80
2022/10/04 12:24:46;;;;;;;;;6.67;6.67;;;;;;;;5064965;28;61721;-81
2022/10/04 12:27:22;;;;;;;;;7.50;7.50;;;;;;;;5065436;28;61953;-81
2022/10/04 12:29:47;;;;;;;;;12.33;10.00;;;;;;;;5065839;28;61743;-81
2022/10/04 12:32:30;;;;;;;;;4.00;4.00;;;;;;;;5067404;27;65022;-80
2022/10/04 12:35:14;;;;;;;;;3.00;3.00;;;;;;;;5087312;27;61926;-80
2022/10/04 12:37:39;;;;;;;;;8.67;6.00;;;;;;;;5085106;28;61991;-80
2022/10/04 12:40:11;;;;;;;;;8.67;7.00;;;;;;;;5085461;27;61893;-81
2022/10/04 12:42:39;;;;;;;;;13.00;7.33;;;;;;;;5084075;28;63622;-80
2022/10/04 12:45:33;;;;;;;;;10.00;8.00;;;;;;;;5086058;27;61770;-81
2022/10/04 12:47:59;;;;;;;;;5.33;5.00;;;;;;;;5082136;27;62071;-80
2022/10/04 12:50:41;;;;;;;;;6.67;6.00;;;;;;;;5078220;27;62047;-80
2022/10/04 12:53:20;;;;;;;;;8.00;5.67;;;;;;;;5070801;28;61835;-80
2022/10/04 12:55:51;;;;;;;;;8.00;6.00;;;;;;;;5085069;28;61754;-80
2022/10/04 12:58:28;;;;;;;;;4.33;3.00;;;;;;;;5084379;27;62075;-81
2022/10/04 13:00:58;;;;;;;;;5.00;2.33;;;;;;;;5086059;28;61985;-81
2022/10/04 13:03:23;;;;;;;;;3.33;2.00;;;;;;;;5082225;28;63810;-81
2022/10/04 13:06:12;;;;;;;;;2.00;2.00;;;;;;;;5083705;28;61954;-81
2022/10/04 13:08:49;;;;;;;;;4.33;4.33;;;;;;;;5081818;27;61783;-80
2022/10/04 13:11:19;;;;;;;;;5.33;2.67;;;;;;;;5083096;28;61856;-81
2022/10/04 13:14:02;;;;;;;;;3.33;3.00;;;;;;;;5082312;28;64090;-81
2022/10/04 13:16:44;;;;;;;;;2.67;2.67;;;;;;;;5084811;28;61805;-81
2022/10/04 13:19:15;;;;;;;;;2.00;2.00;;;;;;;;5086061;27;62072;-80
2022/10/04 13:21:49;;;;;;;;;3.00;3.00;;;;;;;;5086163;28;61969;-80
2022/10/04 13:24:28;;;;;;;;;3.00;3.00;;;;;;;;5084481;28;62004;-80
2022/10/04 13:27:14;;;;;;;;;2.33;1.67;;;;;;;;5085205;27;61206;-80
2022/10/04 13:29:46;;;;;;;;;4.00;3.00;;;;;;;;5085289;27;61738;-80
2022/10/04 13:32:17;;;;;;;;;3.00;3.00;;;;;;;;5082904;27;61927;-82
2022/10/04 13:34:45;;;;;;;;;3.33;3.00;;;;;;;;5082781;28;61997;-82
2022/10/04 13:37:22;;;;;;;;;5.00;4.67;;;;;;;;5083177;28;61865;-81
2022/10/04 13:39:54;;;;;;;;;2.33;2.33;;;;;;;;5083312;28;61845;-80
2022/10/04 13:42:38;;;;;;;;;3.00;1.67;;;;;;;;5084018;28;62136;-80
2022/10/04 13:45:06;;;;;;;;;1.67;1.67;;;;;;;;5082008;28;63165;-80
2022/10/04 13:47:47;;;;;;;;;2.00;2.00;;;;;;;;5081815;28;61938;-81
2022/10/04 13:50:18;;;;;;;;;3.67;1.67;;;;;;;;5082008;27;61782;-80
2022/10/04 13:56:35;;;;;;;;;5.00;2.00;;;;;;;;5082330;28;61729;-81
2022/10/04 13:59:06;;;;;;;;;0.67;0.67;;;;;;;;5101472;27;62053;-80
2022/10/04 14:01:51;;;;;;;;;1.67;1.67;;;;;;;;5081857;28;61801;-80
2022/10/04 14:04:35;;;;;;;;;3.00;2.00;;;;;;;;5080697;28;61809;-80
2022/10/04 14:07:18;;;;;;;;;1.67;1.67;;;;;;;;5081372;28;61966;-81
2022/10/04 14:10:02;;;;;;;;;7.00;3.00;;;;;;;;5080581;28;63542;-80
2022/10/04 14:12:31;;;;;;;;;4.00;3.33;;;;;;;;5079338;28;61836;-80
2022/10/04 14:15:11;;;;;;;;;2.33;2.33;;;;;;;;5080222;28;62491;-80
2022/10/04 14:17:59;;;;;;;;;3.00;2.00;;;;;;;;5076746;28;62933;-81
2022/10/04 14:20:40;;;;;;;;;5.00;3.00;;;;;;;;5082191;28;61947;-80
2022/10/04 14:23:06;;;;;;;;;2.67;2.67;;;;;;;;5082447;28;61748;-80
2022/10/04 14:25:50;;;;;;;;;2.00;2.00;;;;;;;;5083574;27;61735;-81
2022/10/04 14:28:32;;;;;;;;;3.67;2.00;;;;;;;;5082755;27;62108;-80
2022/10/04 14:31:09;;;;;;;;;2.67;1.33;;;;;;;;5082560;27;61805;-81
2022/10/04 14:33:34;;;;;;;;;1.00;1.00;;;;;;;;5081296;27;62067;-81
2022/10/04 14:36:08;;;;;;;;;1.67;1.67;;;;;;;;5083063;28;62016;-81
2022/10/04 14:38:46;;;;;;;;;3.00;2.00;;;;;;;;5080765;28;64059;-82
2022/10/04 14:41:34;;;;;;;;;0.67;0.33;;;;;;;;5082775;28;61851;-81
2022/10/04 14:44:23;;;;;;;;;1.67;1.00;;;;;;;;5060347;28;61947;-81
2022/10/04 14:46:54;;;;;;;;;1.00;1.00;;;;;;;;5061257;28;62382;-81
2022/10/04 14:49:29;;;;;;;;;0.33;0.33;;;;;;;;5066996;27;61909;-82
2022/10/04 14:52:19;;;;;;;;;1.00;1.00;;;;;;;;5083648;28;62112;-81
2022/10/04 14:54:53;;;;;;;;;1.00;1.00;;;;;;;;5085244;27;61748;-83
2022/10/04 14:57:38;;;;;;;;;1.67;1.33;;;;;;;;5083660;28;61786;-82
2022/10/04 15:00:15;;;;;;;;;2.00;2.00;;;;;;;;5083393;28;63660;-82
2022/10/04 15:02:50;;;;;;;;;8.00;3.00;;;;;;;;5084014;27;61789;-83
2022/10/04 15:05:29;;;;;;;;;3.00;1.33;;;;;;;;5084786;28;61747;-82
2022/10/04 15:08:15;;;;;;;;;2.00;1.00;;;;;;;;5085910;27;62053;-82
2022/10/04 15:10:48;;;;;;;;;0.67;0.67;;;;;;;;5062454;28;63121;-81
2022/10/04 15:13:32;;;;;;;;;4.00;2.00;;;;;;;;5062841;28;62005;-81
2022/10/04 15:16:12;;;;;;;;;1.00;1.00;;;;;;;;5045735;28;61807;-81
2022/10/04 15:18:46;;;;;;;;;0.00;0.00;;;;;;;;5046600;28;62042;-81